sensor_id;sensor_type;location;lat;lon;timestamp;P1;durP1;ratioP1;P2;durP2;ratioP2
69417;SDS011;56610;48.872;2.400;2022-08-27T00:01:13;2.70;;;1.10;;
69417;SDS011;56610;48.872;2.400;2022-08-27T00:03:42;3.83;;;1.08;;
69417;SDS011;56610;48.872;2.400;2022-08-27T00:06:10;2.03;;;1.20;;
69417;SDS011;56610;48.872;2.400;2022-08-27T00:08:38;2.35;;;1.20;;
69417;SDS011;56610;48.872;2.400;2022-08-27T00:11:04;1.60;;;1.10;;
69417;SDS011;56610;48.872;2.400;2022-08-27T00:13:30;2.05;;;1.40;;
69417;SDS011;56610;48.872;2.400;2022-08-27T00:15:55;2.63;;;1.30;;
69417;SDS011;56610;48.872;2.400;2022-08-27T00:18:21;4.25;;;1.27;;
69417;SDS011;56610;48.872;2.400;2022-08-27T00:20:47;2.50;;;1.35;;
69417;SDS011;56610;48.872;2.400;2022-08-27T00:23:12;3.13;;;1.50;;
69417;SDS011;56610;48.872;2.400;2022-08-27T00:25:38;2.75;;;1.30;;
69417;SDS011;56610;48.872;2.400;2022-08-27T00:28:04;2.92;;;1.42;;
69417;SDS011;56610;48.872;2.400;2022-08-27T00:30:30;2.22;;;1.40;;
69417;SDS011;56610;48.872;2.400;2022-08-27T00:32:56;4.60;;;1.70;;
69417;SDS011;56610;48.872;2.400;2022-08-27T00:35:21;2.55;;;1.70;;
69417;SDS011;56610;48.872;2.400;2022-08-27T00:37:47;3.28;;;1.50;;
69417;SDS011;56610;48.872;2.400;2022-08-27T00:40:15;2.53;;;1.83;;
69417;SDS011;56610;48.872;2.400;2022-08-27T00:42:44;3.42;;;1.75;;
69417;SDS011;56610;48.872;2.400;2022-08-27T00:45:10;3.05;;;1.85;;
69417;SDS011;56610;48.872;2.400;2022-08-27T00:47:39;1.65;;;1.45;;
69417;SDS011;56610;48.872;2.400;2022-08-27T00:50:10;1.80;;;1.63;;
69417;SDS011;56610;48.872;2.400;2022-08-27T00:52:46;2.88;;;1.65;;
69417;SDS011;56610;48.872;2.400;2022-08-27T00:57:43;2.30;;;1.60;;
69417;SDS011;56610;48.872;2.400;2022-08-27T01:00:13;3.72;;;1.80;;
69417;SDS011;56610;48.872;2.400;2022-08-27T01:02:41;2.80;;;1.60;;
69417;SDS011;56610;48.872;2.400;2022-08-27T01:05:11;4.55;;;2.15;;
69417;SDS011;56610;48.872;2.400;2022-08-27T01:07:40;2.83;;;1.80;;
69417;SDS011;56610;48.872;2.400;2022-08-27T01:10:11;4.85;;;1.60;;
69417;SDS011;56610;48.872;2.400;2022-08-27T01:12:41;2.47;;;1.65;;
69417;SDS011;56610;48.872;2.400;2022-08-27T01:15:08;3.70;;;1.60;;
69417;SDS011;56610;48.872;2.400;2022-08-27T01:17:36;2.53;;;1.42;;
69417;SDS011;56610;48.872;2.400;2022-08-27T01:20:04;2.97;;;1.65;;
69417;SDS011;56610;48.872;2.400;2022-08-27T01:22:54;2.05;;;1.30;;
69417;SDS011;56610;48.872;2.400;2022-08-27T01:25:41;2.63;;;1.50;;
69417;SDS011;56610;48.872;2.400;2022-08-27T01:28:07;1.50;;;1.20;;
69417;SDS011;56610;48.872;2.400;2022-08-27T01:30:35;5.72;;;1.33;;
69417;SDS011;56610;48.872;2.400;2022-08-27T01:33:06;1.45;;;1.05;;
69417;SDS011;56610;48.872;2.400;2022-08-27T01:35:33;2.58;;;1.60;;
69417;SDS011;56610;48.872;2.400;2022-08-27T01:37:59;4.18;;;1.50;;
69417;SDS011;56610;48.872;2.400;2022-08-27T01:40:25;2.25;;;1.20;;
69417;SDS011;56610;48.872;2.400;2022-08-27T01:42:52;3.00;;;1.33;;
69417;SDS011;56610;48.872;2.400;2022-08-27T01:45:28;3.88;;;1.45;;
69417;SDS011;56610;48.872;2.400;2022-08-27T01:47:56;2.78;;;1.20;;
69417;SDS011;56610;48.872;2.400;2022-08-27T01:50:24;2.80;;;1.50;;
69417;SDS011;56610;48.872;2.400;2022-08-27T01:52:52;3.13;;;1.17;;
69417;SDS011;56610;48.872;2.400;2022-08-27T01:55:20;2.22;;;1.30;;
69417;SDS011;56610;48.872;2.400;2022-08-27T01:57:49;2.83;;;1.40;;
69417;SDS011;56610;48.872;2.400;2022-08-27T02:00:17;2.30;;;1.20;;
69417;SDS011;56610;48.872;2.400;2022-08-27T02:02:47;2.20;;;1.40;;
69417;SDS011;56610;48.872;2.400;2022-08-27T02:05:14;3.20;;;1.40;;
69417;SDS011;56610;48.872;2.400;2022-08-27T02:07:39;2.95;;;1.10;;
69417;SDS011;56610;48.872;2.400;2022-08-27T02:10:07;2.47;;;1.10;;
69417;SDS011;56610;48.872;2.400;2022-08-27T02:12:34;3.42;;;1.38;;
69417;SDS011;56610;48.872;2.400;2022-08-27T02:15:00;3.15;;;1.52;;
69417;SDS011;56610;48.872;2.400;2022-08-27T02:17:26;2.25;;;1.38;;
69417;SDS011;56610;48.872;2.400;2022-08-27T02:19:52;2.00;;;1.35;;
69417;SDS011;56610;48.872;2.400;2022-08-27T02:22:18;2.35;;;1.20;;
69417;SDS011;56610;48.872;2.400;2022-08-27T02:24:44;4.50;;;1.50;;
69417;SDS011;56610;48.872;2.400;2022-08-27T02:27:09;2.60;;;1.35;;
69417;SDS011;56610;48.872;2.400;2022-08-27T02:29:35;3.70;;;1.35;;
69417;SDS011;56610;48.872;2.400;2022-08-27T02:32:01;1.95;;;1.20;;
69417;SDS011;56610;48.872;2.400;2022-08-27T02:34:27;2.58;;;1.25;;
69417;SDS011;56610;48.872;2.400;2022-08-27T02:36:53;3.30;;;1.42;;
69417;SDS011;56610;48.872;2.400;2022-08-27T02:39:19;4.82;;;1.48;;
69417;SDS011;56610;48.872;2.400;2022-08-27T02:41:45;2.78;;;1.13;;
69417;SDS011;56610;48.872;2.400;2022-08-27T02:44:10;2.72;;;1.30;;
69417;SDS011;56610;48.872;2.400;2022-08-27T02:46:39;3.47;;;1.38;;
69417;SDS011;56610;48.872;2.400;2022-08-27T02:49:06;2.08;;;1.20;;
69417;SDS011;56610;48.872;2.400;2022-08-27T02:51:33;2.75;;;1.00;;
69417;SDS011;56610;48.872;2.400;2022-08-27T02:53:59;3.15;;;1.40;;
69417;SDS011;56610;48.872;2.400;2022-08-27T02:56:25;4.72;;;1.27;;
69417;SDS011;56610;48.872;2.400;2022-08-27T02:58:52;3.20;;;1.17;;
69417;SDS011;56610;48.872;2.400;2022-08-27T03:01:17;4.10;;;1.00;;
69417;SDS011;56610;48.872;2.400;2022-08-27T03:03:43;3.25;;;1.20;;
69417;SDS011;56610;48.872;2.400;2022-08-27T03:06:09;2.75;;;1.30;;
69417;SDS011;56610;48.872;2.400;2022-08-27T03:08:35;2.55;;;1.35;;
69417;SDS011;56610;48.872;2.400;2022-08-27T03:11:00;2.80;;;1.33;;
69417;SDS011;56610;48.872;2.400;2022-08-27T03:13:26;2.83;;;1.50;;
69417;SDS011;56610;48.872;2.400;2022-08-27T03:15:52;3.17;;;1.20;;
69417;SDS011;56610;48.872;2.400;2022-08-27T03:18:18;2.60;;;1.20;;
69417;SDS011;56610;48.872;2.400;2022-08-27T03:23:30;3.53;;;1.33;;
69417;SDS011;56610;48.872;2.400;2022-08-27T03:26:00;1.38;;;1.00;;
69417;SDS011;56610;48.872;2.400;2022-08-27T03:28:29;2.22;;;1.10;;
69417;SDS011;56610;48.872;2.400;2022-08-27T03:30:58;2.08;;;1.10;;
69417;SDS011;56610;48.872;2.400;2022-08-27T03:36:11;4.63;;;1.35;;
69417;SDS011;56610;48.872;2.400;2022-08-27T03:38:37;3.00;;;1.20;;
69417;SDS011;56610;48.872;2.400;2022-08-27T03:41:03;3.72;;;1.50;;
69417;SDS011;56610;48.872;2.400;2022-08-27T03:43:29;3.10;;;1.27;;
69417;SDS011;56610;48.872;2.400;2022-08-27T03:45:55;2.58;;;1.15;;
69417;SDS011;56610;48.872;2.400;2022-08-27T03:48:20;3.20;;;1.40;;
69417;SDS011;56610;48.872;2.400;2022-08-27T03:50:47;4.28;;;1.58;;
69417;SDS011;56610;48.872;2.400;2022-08-27T03:53:14;3.42;;;1.30;;
69417;SDS011;56610;48.872;2.400;2022-08-27T03:55:41;2.53;;;1.42;;
69417;SDS011;56610;48.872;2.400;2022-08-27T03:58:07;2.55;;;1.30;;
69417;SDS011;56610;48.872;2.400;2022-08-27T04:00:34;3.63;;;1.42;;
69417;SDS011;56610;48.872;2.400;2022-08-27T04:03:00;2.95;;;1.30;;
69417;SDS011;56610;48.872;2.400;2022-08-27T04:05:26;2.88;;;1.20;;
69417;SDS011;56610;48.872;2.400;2022-08-27T04:07:52;2.97;;;1.50;;
69417;SDS011;56610;48.872;2.400;2022-08-27T04:10:18;4.38;;;1.55;;
69417;SDS011;56610;48.872;2.400;2022-08-27T04:12:44;2.63;;;1.30;;
69417;SDS011;56610;48.872;2.400;2022-08-27T04:15:10;3.38;;;1.38;;
69417;SDS011;56610;48.872;2.400;2022-08-27T04:17:37;3.33;;;1.53;;
69417;SDS011;56610;48.872;2.400;2022-08-27T04:20:03;3.63;;;1.30;;
69417;SDS011;56610;48.872;2.400;2022-08-27T04:22:30;3.08;;;1.30;;
69417;SDS011;56610;48.872;2.400;2022-08-27T04:24:57;2.67;;;1.25;;
69417;SDS011;56610;48.872;2.400;2022-08-27T04:27:24;3.47;;;1.45;;
69417;SDS011;56610;48.872;2.400;2022-08-27T04:29:53;4.90;;;1.33;;
69417;SDS011;56610;48.872;2.400;2022-08-27T04:32:22;2.30;;;1.40;;
69417;SDS011;56610;48.872;2.400;2022-08-27T04:34:51;3.95;;;2.15;;
69417;SDS011;56610;48.872;2.400;2022-08-27T04:37:21;4.20;;;1.70;;
69417;SDS011;56610;48.872;2.400;2022-08-27T04:39:47;2.38;;;1.33;;
69417;SDS011;56610;48.872;2.400;2022-08-27T04:42:15;3.03;;;1.58;;
69417;SDS011;56610;48.872;2.400;2022-08-27T04:44:42;3.65;;;1.60;;
69417;SDS011;56610;48.872;2.400;2022-08-27T04:47:08;4.18;;;1.50;;
69417;SDS011;56610;48.872;2.400;2022-08-27T04:49:34;2.72;;;1.30;;
69417;SDS011;56610;48.872;2.400;2022-08-27T04:52:00;3.28;;;1.60;;
69417;SDS011;56610;48.872;2.400;2022-08-27T04:54:27;4.35;;;1.73;;
69417;SDS011;56610;48.872;2.400;2022-08-27T04:56:53;4.15;;;1.60;;
69417;SDS011;56610;48.872;2.400;2022-08-27T04:59:19;3.70;;;1.95;;
69417;SDS011;56610;48.872;2.400;2022-08-27T05:01:45;4.45;;;1.40;;
69417;SDS011;56610;48.872;2.400;2022-08-27T05:04:12;3.88;;;1.50;;
69417;SDS011;56610;48.872;2.400;2022-08-27T05:06:40;5.07;;;1.90;;
69417;SDS011;56610;48.872;2.400;2022-08-27T05:09:08;2.60;;;1.45;;
69417;SDS011;56610;48.872;2.400;2022-08-27T05:11:34;5.22;;;1.80;;
69417;SDS011;56610;48.872;2.400;2022-08-27T05:14:03;2.88;;;1.30;;
69417;SDS011;56610;48.872;2.400;2022-08-27T05:16:30;3.30;;;1.73;;
69417;SDS011;56610;48.872;2.400;2022-08-27T05:18:57;2.78;;;1.60;;
69417;SDS011;56610;48.872;2.400;2022-08-27T05:21:25;3.88;;;1.73;;
69417;SDS011;56610;48.872;2.400;2022-08-27T05:23:56;4.95;;;2.00;;
69417;SDS011;56610;48.872;2.400;2022-08-27T05:26:24;4.53;;;2.05;;
69417;SDS011;56610;48.872;2.400;2022-08-27T05:28:50;4.38;;;1.80;;
69417;SDS011;56610;48.872;2.400;2022-08-27T05:31:16;3.88;;;1.70;;
69417;SDS011;56610;48.872;2.400;2022-08-27T05:33:43;3.08;;;1.80;;
69417;SDS011;56610;48.872;2.400;2022-08-27T05:36:16;4.25;;;1.80;;
69417;SDS011;56610;48.872;2.400;2022-08-27T05:38:44;4.55;;;1.83;;
69417;SDS011;56610;48.872;2.400;2022-08-27T05:41:13;5.22;;;1.88;;
69417;SDS011;56610;48.872;2.400;2022-08-27T05:43:41;4.53;;;1.83;;
69417;SDS011;56610;48.872;2.400;2022-08-27T05:46:08;5.30;;;2.03;;
69417;SDS011;56610;48.872;2.400;2022-08-27T05:48:36;4.60;;;1.70;;
69417;SDS011;56610;48.872;2.400;2022-08-27T05:53:49;2.17;;;1.58;;
69417;SDS011;56610;48.872;2.400;2022-08-27T05:56:16;2.72;;;1.50;;
69417;SDS011;56610;48.872;2.400;2022-08-27T05:58:43;4.55;;;1.65;;
69417;SDS011;56610;48.872;2.400;2022-08-27T06:01:29;6.03;;;1.90;;
69417;SDS011;56610;48.872;2.400;2022-08-27T06:03:57;3.45;;;1.60;;
69417;SDS011;56610;48.872;2.400;2022-08-27T06:06:22;4.05;;;1.70;;
69417;SDS011;56610;48.872;2.400;2022-08-27T06:08:49;2.78;;;1.70;;
69417;SDS011;56610;48.872;2.400;2022-08-27T06:11:17;5.35;;;1.77;;
69417;SDS011;56610;48.872;2.400;2022-08-27T06:13:46;3.97;;;1.88;;
69417;SDS011;56610;48.872;2.400;2022-08-27T06:16:13;2.88;;;1.90;;
69417;SDS011;56610;48.872;2.400;2022-08-27T06:18:41;4.78;;;1.77;;
69417;SDS011;56610;48.872;2.400;2022-08-27T06:21:09;3.53;;;1.88;;
69417;SDS011;56610;48.872;2.400;2022-08-27T06:23:35;2.10;;;1.70;;
69417;SDS011;56610;48.872;2.400;2022-08-27T06:26:04;4.00;;;2.10;;
69417;SDS011;56610;48.872;2.400;2022-08-27T06:28:32;6.82;;;2.30;;
69417;SDS011;56610;48.872;2.400;2022-08-27T06:31:03;4.88;;;2.20;;
69417;SDS011;56610;48.872;2.400;2022-08-27T06:33:33;6.00;;;2.20;;
69417;SDS011;56610;48.872;2.400;2022-08-27T06:36:00;7.00;;;2.35;;
69417;SDS011;56610;48.872;2.400;2022-08-27T06:38:27;5.07;;;1.98;;
69417;SDS011;56610;48.872;2.400;2022-08-27T06:40:53;4.43;;;2.50;;
69417;SDS011;56610;48.872;2.400;2022-08-27T06:43:20;5.95;;;2.63;;
69417;SDS011;56610;48.872;2.400;2022-08-27T06:45:46;6.07;;;2.13;;
69417;SDS011;56610;48.872;2.400;2022-08-27T06:48:12;3.63;;;2.10;;
69417;SDS011;56610;48.872;2.400;2022-08-27T06:50:39;5.43;;;2.17;;
69417;SDS011;56610;48.872;2.400;2022-08-27T06:53:06;4.13;;;2.35;;
69417;SDS011;56610;48.872;2.400;2022-08-27T06:55:32;3.53;;;2.30;;
69417;SDS011;56610;48.872;2.400;2022-08-27T06:58:04;5.03;;;2.30;;
69417;SDS011;56610;48.872;2.400;2022-08-27T07:00:29;4.15;;;2.15;;
69417;SDS011;56610;48.872;2.400;2022-08-27T07:02:58;4.53;;;2.53;;
69417;SDS011;56610;48.872;2.400;2022-08-27T07:05:25;5.05;;;2.60;;
69417;SDS011;56610;48.872;2.400;2022-08-27T07:07:51;6.15;;;2.50;;
69417;SDS011;56610;48.872;2.400;2022-08-27T07:10:17;5.80;;;2.67;;
69417;SDS011;56610;48.872;2.400;2022-08-27T07:12:43;6.35;;;2.50;;
69417;SDS011;56610;48.872;2.400;2022-08-27T07:15:09;4.97;;;2.58;;
69417;SDS011;56610;48.872;2.400;2022-08-27T07:17:35;4.03;;;2.25;;
69417;SDS011;56610;48.872;2.400;2022-08-27T07:20:00;4.25;;;2.30;;
69417;SDS011;56610;48.872;2.400;2022-08-27T07:22:26;4.63;;;2.80;;
69417;SDS011;56610;48.872;2.400;2022-08-27T07:24:53;3.67;;;2.30;;
69417;SDS011;56610;48.872;2.400;2022-08-27T07:27:19;4.20;;;2.58;;
69417;SDS011;56610;48.872;2.400;2022-08-27T07:29:46;5.63;;;2.67;;
69417;SDS011;56610;48.872;2.400;2022-08-27T07:32:11;5.70;;;2.67;;
69417;SDS011;56610;48.872;2.400;2022-08-27T07:34:37;5.40;;;2.42;;
69417;SDS011;56610;48.872;2.400;2022-08-27T07:37:03;5.35;;;2.55;;
69417;SDS011;56610;48.872;2.400;2022-08-27T07:39:28;4.75;;;2.60;;
69417;SDS011;56610;48.872;2.400;2022-08-27T07:41:55;4.70;;;2.40;;
69417;SDS011;56610;48.872;2.400;2022-08-27T07:44:39;3.40;;;2.22;;
69417;SDS011;56610;48.872;2.400;2022-08-27T07:47:06;3.58;;;2.60;;
69417;SDS011;56610;48.872;2.400;2022-08-27T07:49:32;4.63;;;2.70;;
69417;SDS011;56610;48.872;2.400;2022-08-27T07:51:59;4.97;;;2.45;;
69417;SDS011;56610;48.872;2.400;2022-08-27T07:54:25;5.25;;;2.85;;
69417;SDS011;56610;48.872;2.400;2022-08-27T07:56:51;7.55;;;3.10;;
69417;SDS011;56610;48.872;2.400;2022-08-27T08:02:03;6.72;;;3.20;;
69417;SDS011;56610;48.872;2.400;2022-08-27T08:04:29;5.30;;;2.70;;
69417;SDS011;56610;48.872;2.400;2022-08-27T08:06:55;3.92;;;2.30;;
69417;SDS011;56610;48.872;2.400;2022-08-27T08:09:20;5.07;;;2.45;;
69417;SDS011;56610;48.872;2.400;2022-08-27T08:11:48;6.50;;;3.08;;
69417;SDS011;56610;48.872;2.400;2022-08-27T08:14:14;5.30;;;3.00;;
69417;SDS011;56610;48.872;2.400;2022-08-27T08:16:41;7.35;;;3.00;;
69417;SDS011;56610;48.872;2.400;2022-08-27T08:19:07;4.80;;;2.78;;
69417;SDS011;56610;48.872;2.400;2022-08-27T08:21:36;4.57;;;2.83;;
69417;SDS011;56610;48.872;2.400;2022-08-27T08:24:03;4.03;;;2.42;;
69417;SDS011;56610;48.872;2.400;2022-08-27T08:26:29;5.22;;;2.22;;
69417;SDS011;56610;48.872;2.400;2022-08-27T08:28:55;5.75;;;2.53;;
69417;SDS011;56610;48.872;2.400;2022-08-27T08:31:21;5.25;;;2.78;;
69417;SDS011;56610;48.872;2.400;2022-08-27T08:33:48;5.15;;;2.45;;
69417;SDS011;56610;48.872;2.400;2022-08-27T08:36:14;5.82;;;2.55;;
69417;SDS011;56610;48.872;2.400;2022-08-27T08:38:42;5.15;;;2.10;;
69417;SDS011;56610;48.872;2.400;2022-08-27T08:41:24;4.85;;;2.20;;
69417;SDS011;56610;48.872;2.400;2022-08-27T08:43:59;4.03;;;2.00;;
69417;SDS011;56610;48.872;2.400;2022-08-27T08:46:32;4.28;;;1.88;;
69417;SDS011;56610;48.872;2.400;2022-08-27T08:49:01;4.25;;;1.95;;
69417;SDS011;56610;48.872;2.400;2022-08-27T08:51:41;4.65;;;2.20;;
69417;SDS011;56610;48.872;2.400;2022-08-27T08:54:17;4.70;;;2.08;;
69417;SDS011;56610;48.872;2.400;2022-08-27T08:57:03;6.97;;;2.20;;
69417;SDS011;56610;48.872;2.400;2022-08-27T08:59:39;4.70;;;2.00;;
69417;SDS011;56610;48.872;2.400;2022-08-27T09:02:09;5.50;;;2.15;;
69417;SDS011;56610;48.872;2.400;2022-08-27T09:04:36;8.30;;;2.58;;
69417;SDS011;56610;48.872;2.400;2022-08-27T09:12:24;4.70;;;2.33;;
69417;SDS011;56610;48.872;2.400;2022-08-27T09:14:59;5.47;;;1.80;;
69417;SDS011;56610;48.872;2.400;2022-08-27T09:17:36;4.30;;;2.00;;
69417;SDS011;56610;48.872;2.400;2022-08-27T09:20:03;5.38;;;2.10;;
69417;SDS011;56610;48.872;2.400;2022-08-27T09:25:26;3.67;;;1.83;;
69417;SDS011;56610;48.872;2.400;2022-08-27T09:27:57;3.58;;;1.90;;
69417;SDS011;56610;48.872;2.400;2022-08-27T09:30:39;3.55;;;1.77;;
69417;SDS011;56610;48.872;2.400;2022-08-27T09:33:06;4.13;;;2.20;;
69417;SDS011;56610;48.872;2.400;2022-08-27T09:35:52;3.45;;;1.75;;
69417;SDS011;56610;48.872;2.400;2022-08-27T09:38:31;5.22;;;2.28;;
69417;SDS011;56610;48.872;2.400;2022-08-27T09:40:59;5.35;;;2.28;;
69417;SDS011;56610;48.872;2.400;2022-08-27T09:43:29;4.88;;;2.28;;
69417;SDS011;56610;48.872;2.400;2022-08-27T09:45:59;3.08;;;1.77;;
69417;SDS011;56610;48.872;2.400;2022-08-27T09:48:33;4.32;;;2.20;;
69417;SDS011;56610;48.872;2.400;2022-08-27T09:51:00;3.88;;;1.88;;
69417;SDS011;56610;48.872;2.400;2022-08-27T09:56:21;5.57;;;2.60;;
69417;SDS011;56610;48.872;2.400;2022-08-27T09:58:50;2.88;;;1.88;;
69417;SDS011;56610;48.872;2.400;2022-08-27T10:01:20;3.22;;;1.70;;
69417;SDS011;56610;48.872;2.400;2022-08-27T10:03:48;3.88;;;1.60;;
69417;SDS011;56610;48.872;2.400;2022-08-27T10:06:25;4.13;;;2.00;;
69417;SDS011;56610;48.872;2.400;2022-08-27T10:08:52;4.05;;;1.90;;
69417;SDS011;56610;48.872;2.400;2022-08-27T10:11:23;4.85;;;1.90;;
69417;SDS011;56610;48.872;2.400;2022-08-27T10:14:50;2.97;;;1.90;;
69417;SDS011;56610;48.872;2.400;2022-08-27T10:25:32;3.85;;;1.73;;
69417;SDS011;56610;48.872;2.400;2022-08-27T10:28:13;2.08;;;1.25;;
69417;SDS011;56610;48.872;2.400;2022-08-27T10:30:57;5.60;;;2.10;;
69417;SDS011;56610;48.872;2.400;2022-08-27T10:41:39;2.80;;;1.50;;
69417;SDS011;56610;48.872;2.400;2022-08-27T10:49:41;2.50;;;1.40;;
69417;SDS011;56610;48.872;2.400;2022-08-27T10:55:05;1.85;;;1.30;;
69417;SDS011;56610;48.872;2.400;2022-08-27T11:00:56;2.97;;;1.42;;
69417;SDS011;56610;48.872;2.400;2022-08-27T11:06:14;3.25;;;1.73;;
69417;SDS011;56610;48.872;2.400;2022-08-27T11:08:43;3.25;;;1.42;;
69417;SDS011;56610;48.872;2.400;2022-08-27T11:11:20;2.35;;;1.35;;
69417;SDS011;56610;48.872;2.400;2022-08-27T11:13:56;1.95;;;1.30;;
69417;SDS011;56610;48.872;2.400;2022-08-27T11:21:28;3.67;;;1.52;;
69417;SDS011;56610;48.872;2.400;2022-08-27T11:24:06;3.15;;;1.45;;
69417;SDS011;56610;48.872;2.400;2022-08-27T11:26:37;2.38;;;1.40;;
69417;SDS011;56610;48.872;2.400;2022-08-27T11:29:09;4.70;;;1.58;;
69417;SDS011;56610;48.872;2.400;2022-08-27T11:34:42;2.60;;;1.60;;
69417;SDS011;56610;48.872;2.400;2022-08-27T11:37:20;1.70;;;1.30;;
69417;SDS011;56610;48.872;2.400;2022-08-27T11:42:56;3.13;;;1.50;;
69417;SDS011;56610;48.872;2.400;2022-08-27T11:45:33;2.65;;;1.55;;
69417;SDS011;56610;48.872;2.400;2022-08-27T11:48:17;4.75;;;1.40;;
69417;SDS011;56610;48.872;2.400;2022-08-27T11:53:31;3.05;;;1.73;;
69417;SDS011;56610;48.872;2.400;2022-08-27T11:59:17;3.72;;;1.70;;
69417;SDS011;56610;48.872;2.400;2022-08-27T12:01:51;4.32;;;1.75;;
69417;SDS011;56610;48.872;2.400;2022-08-27T12:06:59;3.47;;;1.50;;
69417;SDS011;56610;48.872;2.400;2022-08-27T12:12:24;2.80;;;1.60;;
69417;SDS011;56610;48.872;2.400;2022-08-27T12:15:02;3.13;;;1.67;;
69417;SDS011;56610;48.872;2.400;2022-08-27T12:17:47;1.85;;;1.40;;
69417;SDS011;56610;48.872;2.400;2022-08-27T12:31:50;3.63;;;1.42;;
69417;SDS011;56610;48.872;2.400;2022-08-27T12:34:20;2.55;;;1.30;;
69417;SDS011;56610;48.872;2.400;2022-08-27T12:36:50;4.05;;;1.50;;
69417;SDS011;56610;48.872;2.400;2022-08-27T12:39:18;3.40;;;1.52;;
69417;SDS011;56610;48.872;2.400;2022-08-27T12:41:49;4.38;;;1.45;;
69417;SDS011;56610;48.872;2.400;2022-08-27T12:44:25;2.08;;;1.20;;
69417;SDS011;56610;48.872;2.400;2022-08-27T12:46:59;1.85;;;1.38;;
69417;SDS011;56610;48.872;2.400;2022-08-27T12:49:30;1.67;;;1.40;;
69417;SDS011;56610;48.872;2.400;2022-08-27T12:52:34;1.67;;;1.10;;
69417;SDS011;56610;48.872;2.400;2022-08-27T13:00:46;3.25;;;1.58;;
69417;SDS011;56610;48.872;2.400;2022-08-27T13:05:53;2.10;;;1.38;;
69417;SDS011;56610;48.872;2.400;2022-08-27T13:08:28;3.35;;;1.25;;
69417;SDS011;56610;48.872;2.400;2022-08-27T13:11:05;1.90;;;1.40;;
69417;SDS011;56610;48.872;2.400;2022-08-27T13:13:51;1.58;;;1.13;;
69417;SDS011;56610;48.872;2.400;2022-08-27T13:16:28;2.38;;;1.50;;
69417;SDS011;56610;48.872;2.400;2022-08-27T13:18:54;2.05;;;1.45;;
69417;SDS011;56610;48.872;2.400;2022-08-27T13:21:29;2.00;;;1.08;;
69417;SDS011;56610;48.872;2.400;2022-08-27T13:24:01;1.08;;;0.98;;
69417;SDS011;56610;48.872;2.400;2022-08-27T13:26:33;1.83;;;1.30;;
69417;SDS011;56610;48.872;2.400;2022-08-27T13:29:03;2.95;;;1.50;;
69417;SDS011;56610;48.872;2.400;2022-08-27T13:31:31;2.08;;;1.30;;
69417;SDS011;56610;48.872;2.400;2022-08-27T13:33:58;1.33;;;1.10;;
69417;SDS011;56610;48.872;2.400;2022-08-27T13:36:26;1.87;;;1.03;;
69417;SDS011;56610;48.872;2.400;2022-08-27T13:38:52;1.52;;;1.20;;
69417;SDS011;56610;48.872;2.400;2022-08-27T13:41:25;1.00;;;0.90;;
69417;SDS011;56610;48.872;2.400;2022-08-27T13:44:12;1.95;;;1.20;;
69417;SDS011;56610;48.872;2.400;2022-08-27T13:46:48;2.13;;;1.08;;
69417;SDS011;56610;48.872;2.400;2022-08-27T13:49:17;1.15;;;0.90;;
69417;SDS011;56610;48.872;2.400;2022-08-27T13:51:47;1.90;;;1.10;;
69417;SDS011;56610;48.872;2.400;2022-08-27T13:54:14;2.70;;;1.52;;
69417;SDS011;56610;48.872;2.400;2022-08-27T13:59:33;2.72;;;1.10;;
69417;SDS011;56610;48.872;2.400;2022-08-27T14:04:42;1.58;;;1.00;;
69417;SDS011;56610;48.872;2.400;2022-08-27T14:07:12;1.30;;;1.00;;
69417;SDS011;56610;48.872;2.400;2022-08-27T14:10:03;2.15;;;1.23;;
69417;SDS011;56610;48.872;2.400;2022-08-27T14:12:35;2.28;;;1.08;;
69417;SDS011;56610;48.872;2.400;2022-08-27T14:15:11;1.33;;;1.00;;
69417;SDS011;56610;48.872;2.400;2022-08-27T14:17:53;1.73;;;1.08;;
69417;SDS011;56610;48.872;2.400;2022-08-27T14:20:20;1.88;;;1.00;;
69417;SDS011;56610;48.872;2.400;2022-08-27T14:22:46;1.58;;;1.00;;
69417;SDS011;56610;48.872;2.400;2022-08-27T14:25:13;2.30;;;1.27;;
69417;SDS011;56610;48.872;2.400;2022-08-27T14:27:40;1.55;;;1.10;;
69417;SDS011;56610;48.872;2.400;2022-08-27T14:30:06;1.38;;;0.90;;
69417;SDS011;56610;48.872;2.400;2022-08-27T14:32:34;1.40;;;0.95;;
69417;SDS011;56610;48.872;2.400;2022-08-27T14:35:00;1.45;;;1.02;;
69417;SDS011;56610;48.872;2.400;2022-08-27T14:37:26;1.02;;;0.95;;
69417;SDS011;56610;48.872;2.400;2022-08-27T14:39:52;1.73;;;0.90;;
69417;SDS011;56610;48.872;2.400;2022-08-27T14:42:17;1.35;;;0.85;;
69417;SDS011;56610;48.872;2.400;2022-08-27T14:44:44;2.35;;;0.90;;
69417;SDS011;56610;48.872;2.400;2022-08-27T14:47:10;0.80;;;0.80;;
69417;SDS011;56610;48.872;2.400;2022-08-27T14:49:41;2.80;;;1.05;;
69417;SDS011;56610;48.872;2.400;2022-08-27T14:52:09;1.90;;;1.10;;
69417;SDS011;56610;48.872;2.400;2022-08-27T14:54:36;1.60;;;1.00;;
69417;SDS011;56610;48.872;2.400;2022-08-27T14:57:03;1.53;;;1.07;;
69417;SDS011;56610;48.872;2.400;2022-08-27T14:59:30;1.58;;;1.13;;
69417;SDS011;56610;48.872;2.400;2022-08-27T15:01:56;2.05;;;1.13;;
69417;SDS011;56610;48.872;2.400;2022-08-27T15:04:23;3.03;;;1.30;;
69417;SDS011;56610;48.872;2.400;2022-08-27T15:06:50;2.17;;;1.17;;
69417;SDS011;56610;48.872;2.400;2022-08-27T15:09:15;1.02;;;0.80;;
69417;SDS011;56610;48.872;2.400;2022-08-27T15:12:01;1.70;;;1.15;;
69417;SDS011;56610;48.872;2.400;2022-08-27T15:14:28;1.98;;;0.90;;
69417;SDS011;56610;48.872;2.400;2022-08-27T15:16:56;2.63;;;1.10;;
69417;SDS011;56610;48.872;2.400;2022-08-27T15:19:23;1.75;;;1.00;;
69417;SDS011;56610;48.872;2.400;2022-08-27T15:21:50;2.63;;;1.13;;
69417;SDS011;56610;48.872;2.400;2022-08-27T15:24:19;2.67;;;1.35;;
69417;SDS011;56610;48.872;2.400;2022-08-27T15:26:47;1.98;;;1.30;;
69417;SDS011;56610;48.872;2.400;2022-08-27T15:29:14;2.22;;;1.20;;
69417;SDS011;56610;48.872;2.400;2022-08-27T15:31:40;1.98;;;1.00;;
69417;SDS011;56610;48.872;2.400;2022-08-27T15:34:06;1.73;;;1.20;;
69417;SDS011;56610;48.872;2.400;2022-08-27T15:36:33;2.22;;;1.20;;
69417;SDS011;56610;48.872;2.400;2022-08-27T15:38:59;1.60;;;1.08;;
69417;SDS011;56610;48.872;2.400;2022-08-27T15:41:24;2.60;;;1.13;;
69417;SDS011;56610;48.872;2.400;2022-08-27T15:43:50;1.65;;;1.17;;
69417;SDS011;56610;48.872;2.400;2022-08-27T15:46:16;1.98;;;1.52;;
69417;SDS011;56610;48.872;2.400;2022-08-27T15:48:42;1.70;;;1.10;;
69417;SDS011;56610;48.872;2.400;2022-08-27T15:51:08;2.38;;;1.30;;
69417;SDS011;56610;48.872;2.400;2022-08-27T15:53:36;1.15;;;0.88;;
69417;SDS011;56610;48.872;2.400;2022-08-27T15:56:03;3.25;;;1.40;;
69417;SDS011;56610;48.872;2.400;2022-08-27T15:58:33;1.80;;;1.00;;
69417;SDS011;56610;48.872;2.400;2022-08-27T16:01:04;2.15;;;1.00;;
69417;SDS011;56610;48.872;2.400;2022-08-27T16:03:35;1.45;;;1.00;;
69417;SDS011;56610;48.872;2.400;2022-08-27T16:06:02;1.47;;;1.20;;
69417;SDS011;56610;48.872;2.400;2022-08-27T16:08:28;0.75;;;0.70;;
69417;SDS011;56610;48.872;2.400;2022-08-27T16:10:54;2.78;;;1.35;;
69417;SDS011;56610;48.872;2.400;2022-08-27T16:13:21;1.95;;;1.10;;
69417;SDS011;56610;48.872;2.400;2022-08-27T16:15:48;3.83;;;1.00;;
69417;SDS011;56610;48.872;2.400;2022-08-27T16:18:13;1.48;;;1.00;;
69417;SDS011;56610;48.872;2.400;2022-08-27T16:20:40;1.90;;;1.08;;
69417;SDS011;56610;48.872;2.400;2022-08-27T16:23:06;2.13;;;1.10;;
69417;SDS011;56610;48.872;2.400;2022-08-27T16:25:32;1.60;;;1.10;;
69417;SDS011;56610;48.872;2.400;2022-08-27T16:27:57;1.77;;;1.15;;
69417;SDS011;56610;48.872;2.400;2022-08-27T16:30:24;1.80;;;1.15;;
69417;SDS011;56610;48.872;2.400;2022-08-27T16:32:51;1.30;;;1.20;;
69417;SDS011;56610;48.872;2.400;2022-08-27T16:35:17;1.67;;;0.90;;
69417;SDS011;56610;48.872;2.400;2022-08-27T16:37:43;2.55;;;1.17;;
69417;SDS011;56610;48.872;2.400;2022-08-27T16:40:10;1.63;;;0.93;;
69417;SDS011;56610;48.872;2.400;2022-08-27T16:42:37;2.25;;;1.10;;